Time;durP1;ratioP1;P1;durP2;ratioP2;P2;SDS_P1;SDS_P2;PMS_P1;PMS_P2;Temp;Humidity;BMP_temperature;BMP_pressure;BME280_temperature;BME280_humidity;BME280_pressure;Samples;Min_cycle;Max_cycle;Signal;HPM_P1;HPM_P2
2022/10/21 00:00:36;;;;;;;42.35;16.70;;;;;;;4.53;89.73;99627.09;8447885;28;20040;-79
2022/10/21 00:04:57;;;;;;;38.30;16.58;;;;;;;4.51;89.46;99629.19;8454441;28;20124;-79
2022/10/21 00:08:58;;;;;;;43.25;16.10;;;;;;;4.47;89.62;99609.38;8455423;28;20048;-80
2022/10/21 00:12:59;;;;;;;36.17;17.10;;;;;;;4.45;90.10;99603.47;8452893;28;20065;-80
2022/10/21 00:17:00;;;;;;;39.22;19.15;;;;;;;4.45;90.12;99592.78;8456476;27;20055;-79
2022/10/21 00:21:05;;;;;;;33.63;15.63;;;;;;;4.47;90.37;99596.00;8516388;27;20059;-77
2022/10/21 00:25:07;;;;;;;39.78;18.17;;;;;;;4.42;90.66;99585.28;8518499;27;20080;-81
2022/10/21 00:29:08;;;;;;;38.47;17.48;;;;;;;4.36;91.05;99594.31;8517797;27;20050;-79
2022/10/21 00:33:09;;;;;;;35.80;17.75;;;;;;;4.34;91.35;99579.59;8517116;27;20167;-79
2022/10/21 00:37:11;;;;;;;42.70;18.45;;;;;;;4.31;91.43;99583.59;8515002;27;20423;-80
2022/10/21 00:41:14;;;;;;;42.38;18.25;;;;;;;4.32;91.98;99587.88;8520162;27;20113;-81
2022/10/21 00:45:20;;;;;;;36.65;17.42;;;;;;;4.29;91.56;99584.91;8521141;27;20051;-80
2022/10/21 00:49:28;;;;;;;38.15;18.33;;;;;;;4.26;92.14;99572.88;8503323;27;20358;-81
2022/10/21 00:53:31;;;;;;;40.17;18.42;;;;;;;4.28;92.03;99570.75;8521342;27;20039;-81
2022/10/21 00:57:33;;;;;;;42.08;18.10;;;;;;;4.26;92.35;99554.16;8494028;27;20066;-80
2022/10/21 01:01:37;;;;;;;39.55;18.02;;;;;;;4.25;92.59;99555.22;8465144;27;20391;-80
2022/10/21 01:05:38;;;;;;;37.63;18.35;;;;;;;4.24;92.59;99549.06;8521432;27;20551;-79
2022/10/21 01:09:39;;;;;;;42.30;20.60;;;;;;;4.24;92.85;99537.53;8525242;27;20058;-81
2022/10/21 01:13:48;;;;;;;44.25;19.10;;;;;;;4.26;92.86;99546.13;8525829;27;20711;-79
2022/10/21 01:18:20;;;;;;;38.63;18.85;;;;;;;4.27;93.14;99546.94;8519642;27;20057;-80
2022/10/21 01:22:53;;;;;;;44.92;19.05;;;;;;;4.32;93.02;99545.09;8522397;27;20051;-80
2022/10/21 01:27:27;;;;;;;44.95;20.30;;;;;;;4.37;93.10;99542.47;8402550;28;20468;-79
2022/10/21 01:31:55;;;;;;;45.40;19.42;;;;;;;4.39;93.55;99518.94;8379475;28;20052;-80
2022/10/21 01:36:01;;;;;;;41.70;18.83;;;;;;;4.45;93.58;99517.91;8402373;28;20864;-80
2022/10/21 01:40:11;;;;;;;43.38;20.08;;;;;;;4.49;93.45;99494.94;8397515;28;20560;-80
2022/10/21 01:44:22;;;;;;;39.03;19.55;;;;;;;4.54;93.35;99497.66;8406376;28;20045;-80
2022/10/21 01:48:26;;;;;;;47.15;21.20;;;;;;;4.58;93.25;99503.28;8397625;28;20107;-79
2022/10/21 01:52:28;;;;;;;53.08;21.85;;;;;;;4.55;93.42;99501.91;8400905;28;20515;-80
2022/10/21 01:56:29;;;;;;;45.83;20.95;;;;;;;4.52;94.00;99502.44;8385374;28;20124;-79
2022/10/21 02:00:34;;;;;;;45.05;21.38;;;;;;;4.52;94.00;99491.75;8401677;28;20052;-80
2022/10/21 02:04:37;;;;;;;47.40;22.13;;;;;;;4.54;93.91;99489.63;8495218;27;20047;-82
2022/10/21 02:08:38;;;;;;;44.70;21.10;;;;;;;4.55;94.07;99496.56;8440243;27;20047;-82
2022/10/21 02:12:41;;;;;;;47.78;21.10;;;;;;;4.60;93.80;99504.59;8520402;27;20546;-79
2022/10/21 02:16:43;;;;;;;46.63;21.05;;;;;;;4.63;93.62;99520.16;8504447;27;20042;-78
2022/10/21 02:20:44;;;;;;;47.05;22.17;;;;;;;4.63;93.73;99504.09;8505474;27;20047;-78
2022/10/21 02:24:52;;;;;;;45.83;21.00;;;;;;;4.72;93.43;99506.28;8525039;27;20068;-78
2022/10/21 02:28:55;;;;;;;47.72;19.70;;;;;;;4.77;93.39;99508.97;8487728;27;20141;-79
2022/10/21 02:33:00;;;;;;;46.33;21.38;;;;;;;4.79;93.33;99512.19;8519749;27;20065;-79
2022/10/21 02:37:15;;;;;;;47.83;20.33;;;;;;;4.79;93.36;99507.66;8502648;27;20051;-80
2022/10/21 02:41:20;;;;;;;42.20;19.83;;;;;;;4.82;93.29;99506.31;8520167;27;20072;-79
2022/10/21 02:45:22;;;;;;;40.03;19.95;;;;;;;4.79;93.38;99501.50;8502428;27;21584;-81
2022/10/21 02:49:23;;;;;;;39.63;20.05;;;;;;;4.81;93.72;99502.06;8466559;27;20670;-79
2022/10/21 02:53:23;;;;;;;43.97;20.88;;;;;;;4.83;93.62;99486.53;8454872;27;20057;-79
2022/10/21 02:57:24;;;;;;;43.33;20.63;;;;;;;4.83;93.78;99491.88;8520099;27;20539;-79
2022/10/21 03:01:25;;;;;;;46.03;20.27;;;;;;;4.88;93.66;99478.50;8501941;27;20443;-79
2022/10/21 03:05:26;;;;;;;44.65;21.50;;;;;;;4.90;93.50;99468.38;8519856;27;20464;-78
2022/10/21 03:09:27;;;;;;;43.22;19.60;;;;;;;4.88;93.81;99478.50;8518512;27;20149;-79
2022/10/21 03:13:28;;;;;;;42.03;19.60;;;;;;;4.91;94.11;99483.34;8520931;27;20137;-78
2022/10/21 03:17:29;;;;;;;40.75;19.52;;;;;;;4.94;93.73;99469.44;8514115;27;20047;-78
2022/10/21 03:21:30;;;;;;;43.65;19.63;;;;;;;4.98;93.62;99471.31;8521964;27;20491;-80
2022/10/21 03:25:30;;;;;;;37.42;18.75;;;;;;;4.99;93.75;99474.81;8525658;27;20176;-79
2022/10/21 03:29:31;;;;;;;41.63;19.80;;;;;;;4.99;93.90;99469.44;8515886;27;20159;-81
2022/10/21 03:33:32;;;;;;;41.70;18.92;;;;;;;5.01;94.07;99467.31;8516719;27;20043;-81
2022/10/21 03:37:33;;;;;;;42.38;19.58;;;;;;;5.01;94.11;99453.94;8523169;27;20038;-81
2022/10/21 03:41:34;;;;;;;39.40;19.85;;;;;;;5.03;94.17;99449.13;8521385;27;20043;-80
2022/10/21 03:45:35;;;;;;;40.25;19.23;;;;;;;5.04;93.92;99451.53;8520729;27;20126;-81
2022/10/21 03:49:39;;;;;;;35.95;17.50;;;;;;;5.02;94.33;99448.31;8513636;27;20042;-80
2022/10/21 03:53:40;;;;;;;37.53;18.27;;;;;;;5.03;94.55;99449.13;8519554;27;20447;-81
2022/10/21 03:57:40;;;;;;;37.20;17.60;;;;;;;5.07;94.53;99444.88;8519492;27;20047;-82
2022/10/21 04:01:41;;;;;;;34.20;17.17;;;;;;;5.09;94.50;99442.72;8521326;27;20038;-80
2022/10/21 04:05:42;;;;;;;39.90;17.83;;;;;;;5.14;94.50;99437.38;8520222;27;20100;-80
2022/10/21 04:09:43;;;;;;;36.58;17.38;;;;;;;5.15;94.53;99441.66;8515762;27;20039;-80
2022/10/21 04:13:44;;;;;;;35.28;18.02;;;;;;;5.20;94.51;99425.59;8520287;27;20042;-81
2022/10/21 04:17:45;;;;;;;37.08;16.08;;;;;;;5.26;94.35;99432.56;8496937;27;20131;-80
2022/10/21 04:21:46;;;;;;;41.45;17.90;;;;;;;5.29;94.34;99429.34;8523366;27;20407;-79
2022/10/21 04:25:47;;;;;;;49.08;21.23;;;;;;;5.32;94.41;99423.47;8486637;27;20095;-80
2022/10/21 04:29:49;;;;;;;71.13;26.30;;;;;;;5.35;94.12;99417.56;8524706;27;20133;-80
2022/10/21 04:33:50;;;;;;;56.83;24.83;;;;;;;5.38;94.31;99411.72;8485436;27;20051;-81
2022/10/21 04:37:51;;;;;;;60.08;23.52;;;;;;;5.41;94.38;99403.13;8515904;27;20062;-81
2022/10/21 04:41:54;;;;;;;49.72;23.83;;;;;;;5.44;94.44;99399.94;8517717;27;20038;-82
2022/10/21 04:45:55;;;;;;;57.13;24.40;;;;;;;5.51;94.20;99397.75;8524032;27;20042;-81
2022/10/21 04:49:56;;;;;;;58.55;26.05;;;;;;;5.58;94.23;99380.63;8492786;27;20046;-82
2022/10/21 04:53:57;;;;;;;57.53;24.38;;;;;;;5.63;93.95;99380.63;8522338;27;20403;-80
2022/10/21 04:57:58;;;;;;;40.53;19.00;;;;;;;5.68;93.98;99359.19;8517644;27;20742;-81
2022/10/21 05:01:59;;;;;;;42.38;20.90;;;;;;;5.74;93.95;99360.78;8518445;27;20051;-81
2022/10/21 05:06:02;;;;;;;37.60;17.20;;;;;;;5.78;93.86;99343.06;8483606;27;20506;-81
2022/10/21 05:10:03;;;;;;;33.00;16.00;;;;;;;5.81;93.84;99321.13;8452249;28;20500;-83
2022/10/21 05:14:04;;;;;;;35.53;18.17;;;;;;;5.84;93.87;99325.91;8451579;28;20039;-81
2022/10/21 05:18:05;;;;;;;32.60;16.38;;;;;;;5.88;93.66;99327.81;8452484;28;20047;-82
2022/10/21 05:22:06;;;;;;;37.03;17.10;;;;;;;5.91;93.83;99321.13;8452597;28;20051;-82
2022/10/21 05:26:07;;;;;;;34.45;15.70;;;;;;;5.93;93.74;99324.31;8452282;28;20227;-81
2022/10/21 05:30:09;;;;;;;28.83;14.93;;;;;;;5.97;93.79;99320.03;8449594;28;20036;-84
2022/10/21 05:34:10;;;;;;;25.85;14.30;;;;;;;6.05;93.54;99305.22;8454282;28;20147;-81
2022/10/21 05:38:11;;;;;;;31.52;14.75;;;;;;;6.08;93.57;99294.75;8402405;28;20540;-80
2022/10/21 05:42:12;;;;;;;32.70;14.30;;;;;;;6.13;93.63;99297.44;8453061;28;20112;-83
2022/10/21 05:46:13;;;;;;;31.33;14.77;;;;;;;6.17;93.12;99285.09;8449503;28;20433;-80
2022/10/21 05:50:14;;;;;;;33.75;15.00;;;;;;;6.22;93.44;99285.06;8485797;28;20032;-81
2022/10/21 05:54:15;;;;;;;29.15;14.07;;;;;;;6.25;93.16;99295.22;8492518;27;20027;-81
2022/10/21 05:58:16;;;;;;;30.27;14.65;;;;;;;6.27;93.20;99287.72;8491788;27;20444;-81
2022/10/21 06:02:17;;;;;;;33.15;14.43;;;;;;;6.31;93.22;99283.41;8491427;27;20115;-81
2022/10/21 06:06:18;;;;;;;26.75;14.20;;;;;;;6.33;93.37;99270.53;8459101;27;20051;-81
2022/10/21 06:10:20;;;;;;;29.05;14.15;;;;;;;6.38;93.03;99276.94;8494425;27;20036;-81
2022/10/21 06:14:20;;;;;;;30.48;14.27;;;;;;;6.41;92.69;99281.72;8491925;27;20054;-80
2022/10/21 06:18:25;;;;;;;30.40;13.88;;;;;;;6.44;92.79;99286.56;8509713;27;20062;-80
2022/10/21 06:22:27;;;;;;;29.42;13.70;;;;;;;6.42;92.88;99288.72;8497843;27;20144;-80
2022/10/21 06:26:28;;;;;;;32.42;13.45;;;;;;;6.44;93.08;99275.81;8527671;27;20050;-81
2022/10/21 06:30:29;;;;;;;29.60;13.65;;;;;;;6.48;92.86;99268.81;8503057;27;20047;-80
2022/10/21 06:34:30;;;;;;;31.25;14.13;;;;;;;6.57;92.49;99275.19;8518538;27;20071;-80
2022/10/21 06:38:31;;;;;;;27.85;14.00;;;;;;;6.62;92.44;99264.44;8445921;27;20047;-80
2022/10/21 06:42:32;;;;;;;24.42;13.88;;;;;;;6.65;92.26;99250.47;8513025;27;20038;-82
2022/10/21 06:46:33;;;;;;;30.70;14.25;;;;;;;6.66;92.07;99242.13;8507738;27;20070;-82
2022/10/21 06:50:36;;;;;;;26.50;12.52;;;;;;;6.71;91.77;99244.78;8516864;27;20055;-82
2022/10/21 06:54:37;;;;;;;28.13;13.18;;;;;;;6.79;91.87;99246.06;8491304;27;20039;-82
2022/10/21 06:58:48;;;;;;;24.33;12.95;;;;;;;6.82;91.51;99242.81;8517033;27;20047;-83
2022/10/21 07:02:50;;;;;;;18.65;11.20;;;;;;;6.89;91.58;99240.63;8523455;27;20099;-80
2022/10/21 07:06:52;;;;;;;26.85;11.48;;;;;;;7.01;91.16;99227.63;8513003;27;20077;-83
2022/10/21 07:10:53;;;;;;;27.75;12.30;;;;;;;7.07;90.98;99214.97;8466772;27;20053;-81
2022/10/21 07:14:54;;;;;;;27.90;12.48;;;;;;;7.08;90.97;99212.00;8516694;27;20145;-81
2022/10/21 07:18:55;;;;;;;26.83;12.23;;;;;;;7.15;91.09;99204.41;8508393;27;20051;-80
2022/10/21 07:22:56;;;;;;;25.25;11.95;;;;;;;7.18;91.15;99211.91;8507608;27;20066;-81
2022/10/21 07:26:57;;;;;;;21.23;11.38;;;;;;;7.27;90.97;99197.84;8489603;27;20066;-81
2022/10/21 07:30:58;;;;;;;23.80;10.57;;;;;;;7.34;90.69;99199.13;8528955;27;20062;-81
2022/10/21 07:34:59;;;;;;;23.27;10.98;;;;;;;7.43;90.44;99207.34;8497543;27;20047;-80
2022/10/21 07:39:03;;;;;;;23.08;10.27;;;;;;;7.53;90.29;99223.34;8525631;27;20094;-81
2022/10/21 07:43:04;;;;;;;20.50;10.02;;;;;;;7.66;90.27;99233.44;8522157;27;20035;-80
2022/10/21 07:47:06;;;;;;;22.50;10.30;;;;;;;7.77;89.74;99224.16;8508626;27;20071;-82
2022/10/21 07:51:12;;;;;;;24.42;10.60;;;;;;;7.90;89.84;99215.38;8516488;27;20055;-80
2022/10/21 07:55:16;;;;;;;22.48;10.15;;;;;;;8.06;89.05;99222.16;8495808;27;20051;-82
2022/10/21 07:59:20;;;;;;;22.35;11.30;;;;;;;8.16;88.86;99225.81;8479928;27;20057;-80
2022/10/21 08:03:21;;;;;;;24.17;11.13;;;;;;;8.26;88.54;99228.34;8501968;27;20047;-80
2022/10/21 08:07:22;;;;;;;21.50;9.95;;;;;;;8.37;88.08;99227.16;8512375;27;20497;-81
2022/10/21 08:11:31;;;;;;;24.05;10.32;;;;;;;8.46;87.92;99214.63;8514324;27;20514;-81
2022/10/21 08:15:31;;;;;;;17.95;10.00;;;;;;;8.57;87.34;99216.09;8495172;27;20084;-82
2022/10/21 08:19:33;;;;;;;21.35;10.43;;;;;;;8.67;87.01;99209.78;8513982;27;20075;-81
2022/10/21 08:23:34;;;;;;;16.17;9.48;;;;;;;8.78;86.81;99206.59;8529469;27;20074;-81
2022/10/21 08:27:36;;;;;;;21.10;9.32;;;;;;;8.86;86.56;99192.47;8502236;27;20054;-80
2022/10/21 08:31:37;;;;;;;19.25;8.68;;;;;;;8.94;85.98;99184.78;8505319;27;20058;-81
2022/10/21 08:35:39;;;;;;;18.63;9.30;;;;;;;8.99;85.79;99200.91;8494644;27;20051;-79
2022/10/21 08:39:40;;;;;;;20.98;8.55;;;;;;;9.03;85.79;99207.28;8516706;27;20458;-81
2022/10/21 08:43:42;;;;;;;13.27;8.40;;;;;;;9.07;85.56;99194.81;8432374;27;20442;-79
2022/10/21 08:47:46;;;;;;;17.23;8.55;;;;;;;9.15;85.62;99183.34;8513618;27;20042;-80
2022/10/21 08:51:53;;;;;;;17.95;8.82;;;;;;;9.33;85.16;99185.16;8494850;27;20548;-80
2022/10/21 08:56:01;;;;;;;13.32;8.13;;;;;;;9.45;85.08;99193.56;8498032;27;20522;-80
2022/10/21 09:00:12;;;;;;;14.63;8.20;;;;;;;9.66;84.97;99189.38;8482459;27;20475;-80
2022/10/21 09:04:31;;;;;;;17.40;8.27;;;;;;;9.87;84.39;99180.88;8499275;27;20281;-82
2022/10/21 09:08:42;;;;;;;11.90;7.03;;;;;;;10.04;83.62;99189.16;8499098;27;20032;-81
2022/10/21 09:12:52;;;;;;;12.43;6.88;;;;;;;10.15;82.66;99179.72;8487799;27;20075;-80
2022/10/21 09:17:26;;;;;;;11.23;7.05;;;;;;;10.30;82.22;99187.50;8510033;27;20051;-80
2022/10/21 09:21:48;;;;;;;15.23;7.78;;;;;;;10.38;81.57;99173.28;8392709;28;20051;-81
2022/10/21 09:26:00;;;;;;;13.98;6.95;;;;;;;10.58;81.76;99170.09;8364707;28;20057;-81
2022/10/21 09:30:05;;;;;;;14.23;6.93;;;;;;;10.89;81.64;99166.66;8374029;28;20094;-84
2022/10/21 09:34:16;;;;;;;19.50;7.07;;;;;;;11.12;80.87;99160.09;8382973;28;20107;-83
2022/10/21 09:38:25;;;;;;;18.55;7.70;;;;;;;11.28;79.81;99147.75;8382502;28;20044;-81
2022/10/21 09:42:26;;;;;;;16.17;6.68;;;;;;;11.28;79.83;99142.34;8381770;28;20150;-78
2022/10/21 09:46:27;;;;;;;15.73;7.78;;;;;;;11.33;79.89;99139.50;8382358;28;20040;-81
2022/10/21 09:50:31;;;;;;;21.13;7.25;;;;;;;11.39;79.90;99127.44;8396074;28;20049;-81
2022/10/21 09:54:34;;;;;;;19.13;8.52;;;;;;;11.42;79.10;99137.63;8350899;27;20044;-81
2022/10/21 09:58:45;;;;;;;23.77;8.20;;;;;;;11.55;78.03;99129.72;8485514;27;20036;-80
2022/10/21 10:02:46;;;;;;;35.53;12.82;;;;;;;11.66;77.08;99137.22;8485752;27;20046;-80
2022/10/21 10:06:48;;;;;;;26.90;12.13;;;;;;;11.68;77.65;99123.41;8447745;27;20058;-81
2022/10/21 10:11:08;;;;;;;19.90;9.25;;;;;;;11.91;76.87;99137.63;8517818;27;20043;-81
2022/10/21 10:15:24;;;;;;;17.58;7.57;;;;;;;12.05;76.69;99155.31;8411662;28;20135;-80
2022/10/21 10:19:27;;;;;;;24.05;10.55;;;;;;;12.13;76.10;99157.22;8411922;28;20045;-81
2022/10/21 10:23:28;;;;;;;18.92;8.25;;;;;;;12.10;75.49;99157.88;8364356;28;20064;-82
2022/10/21 10:27:29;;;;;;;15.10;7.45;;;;;;;12.11;75.47;99137.78;8396978;28;20488;-80
2022/10/21 10:31:31;;;;;;;29.90;14.05;;;;;;;12.19;76.19;99112.66;8398104;28;20055;-81
2022/10/21 10:35:35;;;;;;;23.55;9.27;;;;;;;12.26;76.30;99106.75;8411174;28;20071;-80
2022/10/21 10:39:37;;;;;;;18.85;8.82;;;;;;;12.24;76.17;99098.94;8424454;28;20044;-80
2022/10/21 10:43:53;;;;;;;15.35;7.85;;;;;;;12.22;76.41;99090.34;8405204;27;20179;-82
2022/10/21 10:48:02;;;;;;;13.73;7.30;;;;;;;12.28;76.35;99099.91;8517926;27;20043;-80
2022/10/21 10:52:08;;;;;;;20.38;7.03;;;;;;;12.47;76.03;99101.47;8486203;27;20502;-79
2022/10/21 10:56:28;;;;;;;15.98;8.43;;;;;;;12.56;75.55;99094.13;8503261;27;20061;-79
2022/10/21 11:00:32;;;;;;;16.73;8.68;;;;;;;12.64;76.02;99074.34;8519890;27;20070;-80
2022/10/21 11:04:54;;;;;;;15.27;7.50;;;;;;;12.75;75.84;99075.59;8514326;27;20118;-80
2022/10/21 11:08:56;;;;;;;14.57;6.53;;;;;;;12.90;75.21;99077.75;8516896;27;20068;-80
2022/10/21 11:12:59;;;;;;;15.48;7.03;;;;;;;13.03;74.84;99076.78;8522006;27;20050;-80
2022/10/21 11:17:11;;;;;;;12.10;6.55;;;;;;;13.23;72.52;99074.47;8505400;27;20073;-81
2022/10/21 11:21:37;;;;;;;13.80;6.43;;;;;;;13.57;70.42;99052.59;8483343;27;20043;-80
2022/10/21 11:25:46;;;;;;;10.07;6.35;;;;;;;13.96;70.32;99046.69;8462929;27;20081;-80
2022/10/21 11:30:03;;;;;;;12.15;6.20;;;;;;;14.32;69.35;99039.84;8488779;27;20031;-80
2022/10/21 11:34:41;;;;;;;13.68;5.80;;;;;;;14.40;68.65;99052.56;8493871;27;20043;-81
2022/10/21 11:39:29;;;;;;;12.85;6.68;;;;;;;14.40;68.50;99055.28;8341534;28;20052;-82
2022/10/21 11:43:33;;;;;;;11.65;5.88;;;;;;;14.24;67.69;99063.22;8242046;28;20451;-80
2022/10/21 11:47:47;;;;;;;15.40;5.65;;;;;;;14.16;67.33;99041.59;8259170;28;20499;-81
2022/10/21 11:52:09;;;;;;;12.18;5.88;;;;;;;14.04;68.33;99044.25;8259415;28;20061;-81
2022/10/21 11:56:31;;;;;;;9.57;5.38;;;;;;;13.96;67.82;99043.97;8256931;28;20141;-80
2022/10/21 12:00:45;;;;;;;8.98;5.13;;;;;;;14.05;67.37;99041.22;8263084;28;20058;-80
2022/10/21 12:05:08;;;;;;;9.45;5.38;;;;;;;14.09;67.55;99041.31;8208300;28;20065;-79
2022/10/21 12:09:41;;;;;;;15.50;8.07;;;;;;;14.21;67.28;99044.09;8237194;28;20560;-80
2022/10/21 12:13:56;;;;;;;15.05;5.63;;;;;;;14.28;66.87;99038.91;8280243;28;20281;-80
2022/10/21 12:18:00;;;;;;;15.95;6.88;;;;;;;14.16;66.96;99030.72;8339326;28;20052;-79
2022/10/21 12:22:05;;;;;;;21.60;7.15;;;;;;;14.11;66.99;99033.66;8367142;28;20048;-79
2022/10/21 12:26:27;;;;;;;30.85;7.75;;;;;;;14.15;67.20;99040.00;8389086;28;20044;-81
2022/10/21 12:30:58;;;;;;;8.80;4.95;;;;;;;14.23;67.46;99041.81;8334818;28;20053;-80
2022/10/21 12:34:59;;;;;;;14.38;6.53;;;;;;;14.43;66.36;99057.34;8257460;28;20626;-80
2022/10/21 12:39:30;;;;;;;10.45;5.40;;;;;;;14.48;66.61;99032.69;8261966;28;20057;-79
2022/10/21 12:43:31;;;;;;;11.90;6.13;;;;;;;14.32;66.50;99023.53;8213775;28;20143;-80
2022/10/21 12:47:35;;;;;;;14.05;6.57;;;;;;;14.25;66.79;99026.81;8223588;28;20050;-80
2022/10/21 12:51:35;;;;;;;15.27;6.38;;;;;;;14.20;67.54;99031.66;8321606;28;20145;-79
2022/10/21 12:55:40;;;;;;;20.45;6.72;;;;;;;14.12;67.31;99018.94;8319626;28;20428;-80
2022/10/21 12:59:42;;;;;;;14.68;7.10;;;;;;;14.04;67.23;99041.53;8323285;28;20049;-80
2022/10/21 13:03:54;;;;;;;13.93;6.20;;;;;;;13.98;66.14;99051.00;8318772;28;20053;-81
2022/10/21 13:08:19;;;;;;;12.40;5.78;;;;;;;13.94;66.36;99035.41;8324953;28;20128;-82
2022/10/21 13:12:21;;;;;;;13.88;6.35;;;;;;;13.95;66.40;99009.03;8429025;27;20583;-79
2022/10/21 13:16:22;;;;;;;12.27;5.88;;;;;;;13.93;66.39;99012.06;8505133;27;20130;-79
2022/10/21 13:20:24;;;;;;;14.13;5.95;;;;;;;13.94;67.52;99034.59;8506531;27;20056;-79
2022/10/21 13:24:49;;;;;;;16.83;6.13;;;;;;;13.88;67.46;99030.50;8517189;27;20111;-80
2022/10/21 13:28:56;;;;;;;13.45;6.50;;;;;;;13.81;67.57;99041.88;8447641;28;20568;-80
2022/10/21 13:33:23;;;;;;;14.88;6.63;;;;;;;13.74;67.61;99036.19;8444771;28;20054;-80
2022/10/21 13:37:42;;;;;;;19.23;8.07;;;;;;;13.71;67.51;99047.69;8427699;28;20115;-80
2022/10/21 13:41:43;;;;;;;17.77;8.23;;;;;;;13.67;67.99;99041.34;8408414;28;20043;-80
2022/10/21 13:45:49;;;;;;;21.50;8.45;;;;;;;13.65;67.83;99032.72;8427062;28;20770;-81
2022/10/21 13:49:53;;;;;;;21.98;9.07;;;;;;;13.61;68.02;99037.25;8425801;28;20052;-80
2022/10/21 13:53:57;;;;;;;19.70;8.10;;;;;;;13.56;68.78;99040.16;8430416;28;20060;-79
2022/10/21 13:57:58;;;;;;;14.95;6.82;;;;;;;13.49;68.62;99051.50;8457549;27;20459;-79
2022/10/21 14:02:00;;;;;;;21.40;7.07;;;;;;;13.46;68.85;99062.25;8507757;27;20047;-80
2022/10/21 14:06:04;;;;;;;16.98;6.88;;;;;;;13.44;68.22;99053.63;8502820;27;20046;-81
2022/10/21 14:10:06;;;;;;;21.13;7.85;;;;;;;13.35;68.67;99055.59;8510159;27;20035;-80
2022/10/21 14:14:09;;;;;;;17.45;6.70;;;;;;;13.37;68.44;99058.78;8497442;27;20724;-80
2022/10/21 14:18:32;;;;;;;12.65;6.70;;;;;;;13.34;69.19;99064.84;8484369;27;20051;-79
2022/10/21 14:22:33;;;;;;;17.27;7.93;;;;;;;13.26;69.33;99063.00;8491410;27;20051;-80
2022/10/21 14:26:34;;;;;;;17.35;8.35;;;;;;;13.25;69.45;99055.97;8461938;27;20051;-81
2022/10/21 14:30:35;;;;;;;14.52;7.28;;;;;;;13.25;69.90;99055.97;8403626;28;20052;-79
2022/10/21 14:35:05;;;;;;;16.83;7.22;;;;;;;13.21;69.92;99060.47;8401281;28;20048;-80
2022/10/21 14:39:17;;;;;;;16.23;7.50;;;;;;;13.20;70.37;99061.59;8388655;28;20075;-79
2022/10/21 14:43:21;;;;;;;21.05;7.43;;;;;;;13.18;70.69;99058.38;8405059;28;20044;-79
2022/10/21 14:47:24;;;;;;;21.25;8.13;;;;;;;13.16;70.76;99057.94;8378250;28;20044;-79
2022/10/21 14:51:26;;;;;;;19.17;7.72;;;;;;;13.16;70.93;99055.22;8384650;28;20060;-80
2022/10/21 14:55:30;;;;;;;14.73;7.78;;;;;;;13.07;71.17;99061.44;8360383;28;20562;-80
2022/10/21 14:59:40;;;;;;;17.52;7.82;;;;;;;13.03;71.86;99060.50;8402398;28;20047;-79
2022/10/21 15:03:40;;;;;;;18.63;8.15;;;;;;;12.99;72.27;99058.78;8407851;28;20050;-79
2022/10/21 15:07:41;;;;;;;16.60;8.15;;;;;;;12.95;72.78;99053.22;8425707;27;20107;-81
2022/10/21 15:11:44;;;;;;;16.23;8.43;;;;;;;12.90;73.68;99053.38;8446882;28;20056;-79
2022/10/21 15:15:53;;;;;;;20.70;9.38;;;;;;;12.85;74.82;99053.56;8469265;27;20401;-79
2022/10/21 15:20:14;;;;;;;25.20;10.05;;;;;;;12.74;75.69;99052.34;8498557;27;20050;-81
2022/10/21 15:24:21;;;;;;;16.58;9.18;;;;;;;12.65;76.61;99048.84;8425560;28;20056;-79
2022/10/21 15:28:22;;;;;;;18.33;9.32;;;;;;;12.56;77.07;99050.78;8419659;28;20090;-79
2022/10/21 15:32:23;;;;;;;24.00;8.73;;;;;;;12.47;77.56;99063.56;8423111;28;20054;-80
2022/10/21 15:36:24;;;;;;;21.60;9.35;;;;;;;12.41;78.00;99048.59;8414945;28;20098;-79
2022/10/21 15:40:25;;;;;;;24.13;10.35;;;;;;;12.38;78.16;99049.22;8419470;28;20060;-80
2022/10/21 15:44:31;;;;;;;25.75;9.95;;;;;;;12.35;78.85;99055.28;8393123;28;20048;-79
2022/10/21 15:48:32;;;;;;;21.48;9.88;;;;;;;12.27;79.85;99060.38;8438411;28;20064;-81
2022/10/21 15:52:33;;;;;;;27.02;10.40;;;;;;;12.14;80.85;99055.16;8429029;27;20044;-79
2022/10/21 15:56:34;;;;;;;24.60;10.35;;;;;;;12.04;82.19;99064.41;8491016;27;20069;-79
2022/10/21 16:00:35;;;;;;;31.45;10.55;;;;;;;12.00;83.35;99066.13;8507071;27;20569;-79
2022/10/21 16:04:37;;;;;;;22.48;10.00;;;;;;;11.89;84.31;99064.88;8500010;27;20087;-79
2022/10/21 16:08:38;;;;;;;18.42;10.68;;;;;;;11.80;84.77;99066.78;8490392;27;20046;-79
2022/10/21 16:12:39;;;;;;;22.85;11.05;;;;;;;11.72;85.44;99054.00;8495978;27;20045;-79
2022/10/21 16:16:52;;;;;;;21.88;11.75;;;;;;;11.67;85.56;99056.88;8496096;27;20032;-78
2022/10/21 16:20:53;;;;;;;21.67;11.15;;;;;;;11.62;86.05;99054.31;8463412;27;20149;-80
2022/10/21 16:24:57;;;;;;;22.67;12.18;;;;;;;11.59;86.85;99060.34;8514302;27;20100;-79
2022/10/21 16:28:58;;;;;;;24.38;12.32;;;;;;;11.54;87.53;99057.78;8499171;27;20463;-78
2022/10/21 16:32:59;;;;;;;27.52;13.20;;;;;;;11.46;88.24;99048.56;8514140;27;20079;-79
2022/10/21 16:37:01;;;;;;;27.10;13.63;;;;;;;11.43;88.53;99047.28;8497208;27;20433;-78
2022/10/21 16:41:02;;;;;;;31.35;14.88;;;;;;;11.41;88.69;99049.53;8494809;27;20123;-78
2022/10/21 16:45:03;;;;;;;30.08;16.48;;;;;;;11.38;89.30;99044.72;8520717;27;20040;-79
2022/10/21 16:49:10;;;;;;;31.38;17.30;;;;;;;11.27;90.84;99032.63;8518589;27;20053;-78
2022/10/21 16:53:15;;;;;;;32.65;18.42;;;;;;;11.22;91.62;99030.06;8502192;27;20044;-78
2022/10/21 16:57:16;;;;;;;32.78;16.52;;;;;;;11.20;92.01;99026.91;8510744;27;20047;-79
2022/10/21 17:01:22;;;;;;;31.40;17.00;;;;;;;11.14;92.59;99022.75;8508538;27;20077;-79
2022/10/21 17:05:23;;;;;;;41.90;20.33;;;;;;;11.13;92.76;99021.16;8489409;27;20046;-80
2022/10/21 17:09:24;;;;;;;40.90;21.55;;;;;;;11.09;93.49;99012.06;8515384;27;20051;-79
2022/10/21 17:13:25;;;;;;;43.70;20.92;;;;;;;11.08;93.70;99007.78;8500202;27;20050;-79
2022/10/21 17:17:26;;;;;;;35.13;18.38;;;;;;;10.99;94.69;99015.06;8522024;27;20051;-79
2022/10/21 17:21:30;;;;;;;28.75;17.13;;;;;;;10.98;94.95;99018.88;8516259;27;20130;-79
2022/10/21 17:25:31;;;;;;;25.35;15.73;;;;;;;10.89;95.66;99020.75;8514626;27;20055;-82
2022/10/21 17:29:32;;;;;;;33.17;17.77;;;;;;;10.85;96.03;99019.78;8522988;27;20035;-82
2022/10/21 17:33:33;;;;;;;34.40;19.33;;;;;;;10.77;96.80;99023.25;8448992;27;20515;-81
2022/10/21 17:37:35;;;;;;;32.78;18.80;;;;;;;10.74;97.05;99029.25;8489682;27;20071;-79
2022/10/21 17:41:36;;;;;;;34.50;20.67;;;;;;;10.67;97.65;99028.91;8497891;27;20053;-79
2022/10/21 17:45:37;;;;;;;38.50;21.55;;;;;;;10.67;97.61;99028.91;8462595;27;20042;-80
2022/10/21 17:49:40;;;;;;;42.13;24.13;;;;;;;10.65;97.48;99025.72;8503877;27;20080;-80
2022/10/21 17:53:41;;;;;;;48.45;25.98;;;;;;;10.59;97.98;99028.56;8513759;27;20043;-79
2022/10/21 17:57:43;;;;;;;46.55;25.38;;;;;;;10.58;98.42;99020.75;8515307;27;20058;-80
2022/10/21 18:01:46;;;;;;;46.97;25.45;;;;;;;10.62;98.40;99023.66;8499415;27;20468;-79
2022/10/21 18:05:50;;;;;;;44.47;23.15;;;;;;;10.50;99.02;99011.53;8513615;27;20045;-80
2022/10/21 18:09:53;;;;;;;41.42;22.27;;;;;;;10.47;99.50;99020.22;8453952;27;20527;-80
2022/10/21 18:13:54;;;;;;;36.30;21.75;;;;;;;10.46;99.76;99029.47;8498922;27;20134;-79
2022/10/21 18:17:56;;;;;;;37.85;21.15;;;;;;;10.44;100.00;99026.25;8513453;27;20051;-78
2022/10/21 18:21:58;;;;;;;35.90;21.80;;;;;;;10.39;100.00;99039.09;8507114;27;20386;-80
2022/10/21 18:26:06;;;;;;;41.08;22.33;;;;;;;10.36;100.00;99024.31;8475271;27;20054;-79
2022/10/21 18:30:09;;;;;;;49.67;24.33;;;;;;;10.34;100.00;99015.72;8527740;27;20627;-78
2022/10/21 18:34:11;;;;;;;43.00;22.92;;;;;;;10.34;100.00;99004.13;8530496;27;20134;-83
2022/10/21 18:38:13;;;;;;;43.08;21.67;;;;;;;10.32;100.00;99017.94;8517365;27;20050;-79
2022/10/21 18:42:16;;;;;;;44.35;22.77;;;;;;;10.36;100.00;99008.13;8530154;27;20099;-78
2022/10/21 18:46:20;;;;;;;43.55;23.88;;;;;;;10.39;100.00;98990.50;8516973;27;20087;-77
2022/10/21 18:50:21;;;;;;;41.80;23.98;;;;;;;10.38;100.00;98995.09;8500602;27;20571;-78
2022/10/21 18:54:22;;;;;;;48.22;24.38;;;;;;;10.39;100.00;98964.31;8513880;27;20111;-77
2022/10/21 18:58:25;;;;;;;47.35;26.02;;;;;;;10.35;100.00;98952.53;8510813;27;20423;-80